createdAt,value
2024-05-09T00:00:44.077Z,77.97
2024-05-09T00:03:12.352Z,77.95
2024-05-09T00:05:44.251Z,78.06
2024-05-09T00:08:12.643Z,77.99
2024-05-09T00:10:41.238Z,78.02
2024-05-09T00:13:10.864Z,78.17
2024-05-09T00:15:38.949Z,78.20
2024-05-09T00:18:07.600Z,78.52
2024-05-09T00:20:39.342Z,78.37
2024-05-09T00:23:12.103Z,78.73
2024-05-09T00:25:40.443Z,78.60
2024-05-09T00:28:07.838Z,78.95
2024-05-09T00:30:36.943Z,78.89
2024-05-09T00:33:08.542Z,79.15
2024-05-09T00:35:37.554Z,79.31
2024-05-09T00:38:05.500Z,79.25
2024-05-09T00:40:41.008Z,79.42
2024-05-09T00:43:14.612Z,79.38
2024-05-09T00:45:43.661Z,79.45
2024-05-09T00:48:17.578Z,79.71
2024-05-09T00:50:47.439Z,79.44
2024-05-09T00:53:17.633Z,79.69
2024-05-09T00:55:45.375Z,79.53
2024-05-09T00:58:16.775Z,79.72
2024-05-09T01:00:45.202Z,79.65
2024-05-09T01:03:14.178Z,79.76
2024-05-09T01:05:43.439Z,79.91
2024-05-09T01:08:11.950Z,79.88
2024-05-09T01:10:42.550Z,79.85
2024-05-09T01:13:12.222Z,80.13
2024-05-09T01:15:39.595Z,80.61
2024-05-09T01:18:13.166Z,80.50
2024-05-09T01:20:43.965Z,80.69
2024-05-09T01:23:15.604Z,80.71
2024-05-09T01:25:45.625Z,80.85
2024-05-09T01:28:14.187Z,80.91
2024-05-09T01:30:41.626Z,81.03
2024-05-09T01:33:11.328Z,81.02
2024-05-09T01:35:42.208Z,80.99
2024-05-09T01:38:17.081Z,80.83
2024-05-09T01:40:45.349Z,81.11
2024-05-09T01:43:12.824Z,80.99
2024-05-09T01:45:41.187Z,81.46
2024-05-09T01:48:10.741Z,81.09
2024-05-09T01:50:43.196Z,81.02
2024-05-09T01:53:13.185Z,81.42
2024-05-09T01:55:41.136Z,81.27
2024-05-09T01:58:09.666Z,81.45
2024-05-09T02:00:41.050Z,81.62
2024-05-09T02:03:16.424Z,81.41
2024-05-09T02:05:47.730Z,81.56
2024-05-09T02:08:18.531Z,81.63
2024-05-09T02:10:47.812Z,81.42
2024-05-09T02:13:16.428Z,82.02
2024-05-09T02:15:44.406Z,82.05
2024-05-09T02:18:12.414Z,81.82
2024-05-09T02:20:44.078Z,82.03
2024-05-09T02:23:12.284Z,81.96
2024-05-09T02:25:40.692Z,82.08
2024-05-09T02:28:08.078Z,82.12
2024-05-09T02:30:39.911Z,82.02
2024-05-09T02:33:12.295Z,82.38
2024-05-09T02:35:41.860Z,82.31
2024-05-09T02:38:10.463Z,82.58
2024-05-09T02:40:39.587Z,82.75
2024-05-09T02:43:10.942Z,83.05
2024-05-09T02:45:40.221Z,83.00
2024-05-09T02:48:11.553Z,83.06
2024-05-09T02:50:44.413Z,82.73
2024-05-09T02:53:13.000Z,83.11
2024-05-09T02:55:41.645Z,83.09
2024-05-09T02:58:09.634Z,83.45
2024-05-09T03:00:42.473Z,83.39
2024-05-09T03:03:13.756Z,83.59
2024-05-09T03:05:44.245Z,83.51
2024-05-09T03:08:12.420Z,83.65
2024-05-09T03:10:40.113Z,83.78
2024-05-09T03:13:13.262Z,83.68
2024-05-09T03:15:42.760Z,83.68
2024-05-09T03:18:10.990Z,83.98
2024-05-09T03:20:39.381Z,84.00
2024-05-09T03:23:09.568Z,84.09
2024-05-09T03:25:38.192Z,84.15
2024-05-09T03:28:06.091Z,84.23
2024-05-09T03:30:40.833Z,84.22
2024-05-09T03:33:13.498Z,84.51
2024-05-09T03:35:42.309Z,84.63
2024-05-09T03:38:10.020Z,84.60
2024-05-09T03:40:44.504Z,85.01
2024-05-09T03:43:11.959Z,84.94
2024-05-09T03:45:39.368Z,85.18
2024-05-09T03:48:07.275Z,85.29
2024-05-09T03:50:36.252Z,85.30
2024-05-09T03:53:04.762Z,85.29
2024-05-09T03:55:32.327Z,85.70
2024-05-09T03:57:59.917Z,85.82
2024-05-09T04:00:35.474Z,85.92
2024-05-09T04:03:09.046Z,86.15
2024-05-09T04:05:43.907Z,86.34
2024-05-09T04:08:12.123Z,86.38
2024-05-09T04:10:39.562Z,86.34
2024-05-09T04:13:06.952Z,86.52
2024-05-09T04:15:34.345Z,86.48
2024-05-09T04:18:02.653Z,86.68
2024-05-09T04:20:37.681Z,86.41
2024-05-09T04:23:11.376Z,86.38
2024-05-09T04:25:38.978Z,86.55
2024-05-09T04:28:06.427Z,86.62
2024-05-09T04:30:38.756Z,86.70
2024-05-09T04:33:11.956Z,86.96
2024-05-09T04:35:45.451Z,86.79
2024-05-09T04:38:14.995Z,87.10
2024-05-09T04:40:42.900Z,87.00
2024-05-09T04:43:19.146Z,86.92
2024-05-09T04:45:46.638Z,87.08
2024-05-09T04:48:14.358Z,87.07
2024-05-09T04:50:42.152Z,87.23
2024-05-09T04:53:11.358Z,87.18
2024-05-09T04:55:40.063Z,87.46
2024-05-09T04:58:09.656Z,87.42
2024-05-09T05:00:39.069Z,87.46
2024-05-09T05:03:14.094Z,87.78
2024-05-09T05:05:45.157Z,87.96
2024-05-09T05:08:15.145Z,88.05
2024-05-09T05:10:44.092Z,88.42
2024-05-09T05:13:24.984Z,88.32
2024-05-09T05:15:57.411Z,88.76
2024-05-09T05:18:28.881Z,88.42
2024-05-09T05:20:57.041Z,88.57
2024-05-09T05:23:25.247Z,88.65
2024-05-09T05:25:54.408Z,88.43
2024-05-09T05:28:22.521Z,88.87
2024-05-09T05:30:50.199Z,89.08
2024-05-09T05:33:23.044Z,88.98
2024-05-09T05:35:51.549Z,89.22
2024-05-09T05:38:20.033Z,88.98
2024-05-09T05:40:49.251Z,89.03
2024-05-09T05:43:18.320Z,89.34
2024-05-09T05:45:46.281Z,89.52
2024-05-09T05:48:18.018Z,89.35
2024-05-09T05:50:45.604Z,89.35
2024-05-09T05:53:13.296Z,89.26
2024-05-09T05:55:41.797Z,88.86
2024-05-09T05:58:10.776Z,88.84
2024-05-09T06:00:40.271Z,88.54
2024-05-09T06:03:10.046Z,89.09
2024-05-09T06:05:44.075Z,88.60
2024-05-09T06:08:12.240Z,89.11
2024-05-09T06:10:41.164Z,89.06
2024-05-09T06:13:13.724Z,88.62
2024-05-09T06:15:42.565Z,88.91
2024-05-09T06:18:11.979Z,88.59
2024-05-09T06:20:42.342Z,88.73
2024-05-09T06:23:11.008Z,88.42
2024-05-09T06:25:38.969Z,88.66
2024-05-09T06:28:06.776Z,88.35
2024-05-09T06:30:40.202Z,88.03
2024-05-09T06:33:12.793Z,88.21
2024-05-09T06:35:42.486Z,87.91
2024-05-09T06:38:11.593Z,88.01
2024-05-09T06:40:42.781Z,87.97
2024-05-09T06:43:11.842Z,87.75
2024-05-09T06:45:40.154Z,87.72
2024-05-09T06:48:09.284Z,87.57
2024-05-09T06:50:38.619Z,87.52
2024-05-09T06:53:07.899Z,87.36
2024-05-09T06:55:35.483Z,87.29
2024-05-09T06:58:05.979Z,87.17
2024-05-09T07:00:39.113Z,87.16
2024-05-09T07:03:14.746Z,87.21
2024-05-09T07:05:44.687Z,86.84
2024-05-09T07:08:12.456Z,86.63
2024-05-09T07:10:40.002Z,86.39
2024-05-09T07:13:11.077Z,86.46
2024-05-09T07:15:38.761Z,86.45
2024-05-09T07:18:11.589Z,86.65
2024-05-09T07:20:41.062Z,86.09
2024-05-09T07:23:13.135Z,86.31
2024-05-09T07:25:41.819Z,86.50
2024-05-09T07:28:18.119Z,86.04
2024-05-09T07:30:46.244Z,86.25
2024-05-09T07:33:22.758Z,85.67
2024-05-09T07:35:53.329Z,86.34
2024-05-09T07:38:21.514Z,86.11
2024-05-09T07:40:51.607Z,86.78
2024-05-09T07:43:18.998Z,86.80
2024-05-09T07:45:52.547Z,86.84
2024-05-09T07:52:39.307Z,88.02
2024-05-09T07:53:48.839Z,88.15
2024-05-09T07:56:21.808Z,88.57
2024-05-09T07:58:51.759Z,88.73
2024-05-09T08:01:20.744Z,88.42
2024-05-09T08:03:48.669Z,88.56
2024-05-09T08:06:16.155Z,88.03
2024-05-09T08:08:43.531Z,87.26
2024-05-09T08:11:10.919Z,86.22
2024-05-09T08:13:38.420Z,84.57
2024-05-09T08:16:07.823Z,82.32
2024-05-09T08:18:35.598Z,80.34
2024-05-09T08:21:03.293Z,78.12
2024-05-09T08:23:30.701Z,75.94
2024-05-09T08:25:58.070Z,73.98
2024-05-09T08:28:25.525Z,71.93
2024-05-09T08:30:53.055Z,70.17
2024-05-09T08:33:20.632Z,68.40
2024-05-09T08:35:48.047Z,66.10
2024-05-09T08:38:15.496Z,64.30
2024-05-09T08:40:43.876Z,63.04
2024-05-09T08:43:12.921Z,61.86
2024-05-09T08:45:45.424Z,60.46
2024-05-09T08:48:15.815Z,59.43
2024-05-09T08:50:45.381Z,58.93
2024-05-09T08:53:15.449Z,57.88
2024-05-09T08:55:44.366Z,57.25
2024-05-09T08:58:21.951Z,57.55
2024-05-09T09:00:49.836Z,55.82
2024-05-09T09:03:25.435Z,56.13
2024-05-09T09:06:12.515Z,55.55
2024-05-09T09:08:40.421Z,54.32
2024-05-09T09:11:07.899Z,53.64
2024-05-09T09:13:35.229Z,53.46
2024-05-09T09:16:03.755Z,53.48
2024-05-09T09:18:32.820Z,52.64
2024-05-09T09:21:00.427Z,52.40
2024-05-09T09:23:30.230Z,51.97
2024-05-09T09:26:01.388Z,52.00
2024-05-09T09:28:29.966Z,51.53
2024-05-09T09:31:04.798Z,51.48
2024-05-09T09:33:33.130Z,51.34
2024-05-09T09:36:03.017Z,50.65
2024-05-09T09:38:32.520Z,50.04
2024-05-09T09:41:05.876Z,50.16
2024-05-09T09:43:34.118Z,50.71
2024-05-09T09:46:02.423Z,50.63
2024-05-09T09:48:32.382Z,49.75
2024-05-09T09:51:00.869Z,49.71
2024-05-09T09:53:32.443Z,49.44
2024-05-09T09:56:01.162Z,49.74
2024-05-09T09:58:30.540Z,49.13
2024-05-09T10:00:58.010Z,49.00
2024-05-09T10:03:25.852Z,49.16
2024-05-09T10:05:54.750Z,48.38
2024-05-09T10:08:24.645Z,48.94
2024-05-09T10:10:52.463Z,48.44
2024-05-09T10:13:20.279Z,49.13
2024-05-09T10:15:52.546Z,48.60
2024-05-09T10:18:27.247Z,48.55
2024-05-09T10:20:56.842Z,47.69
2024-05-09T10:23:26.461Z,47.01
2024-05-09T10:26:05.309Z,47.27
2024-05-09T10:28:37.114Z,46.96
2024-05-09T10:31:08.964Z,47.36
2024-05-09T10:33:48.700Z,47.27
2024-05-09T10:36:23.334Z,47.07
2024-05-09T10:38:52.948Z,47.08
2024-05-09T10:41:23.238Z,47.40
2024-05-09T10:43:51.557Z,48.08
2024-05-09T10:46:20.044Z,48.85
2024-05-09T10:48:48.844Z,49.05
2024-05-09T10:51:19.871Z,49.66
2024-05-09T10:53:48.743Z,49.93
2024-05-09T10:56:17.246Z,50.52
2024-05-09T10:58:45.049Z,50.92
2024-05-09T11:01:14.089Z,51.94
2024-05-09T11:03:42.210Z,51.83
2024-05-09T11:06:11.718Z,51.85
2024-05-09T11:08:39.912Z,52.42
2024-05-09T11:11:08.928Z,52.47
2024-05-09T11:13:40.976Z,52.57
2024-05-09T11:16:20.160Z,52.73
2024-05-09T11:18:58.962Z,53.88
2024-05-09T11:21:27.099Z,53.97
2024-05-09T11:23:55.075Z,54.71
2024-05-09T11:26:22.817Z,54.81
2024-05-09T11:28:51.023Z,55.94
2024-05-09T11:31:18.945Z,56.53
2024-05-09T11:33:46.894Z,56.65
2024-05-09T11:36:15.520Z,56.10
2024-05-09T11:38:43.276Z,56.04
2024-05-09T11:41:18.709Z,56.39
2024-05-09T11:43:47.208Z,57.35
2024-05-09T11:46:14.998Z,57.06
2024-05-09T11:48:42.852Z,56.72
2024-05-09T11:51:10.387Z,56.96
2024-05-09T11:53:37.799Z,57.69
2024-05-09T11:56:05.632Z,58.05
2024-05-09T11:58:34.852Z,58.00
2024-05-09T12:01:02.656Z,57.92
2024-05-09T12:03:30.520Z,57.76
2024-05-09T12:05:58.220Z,58.38
2024-05-09T12:08:25.750Z,58.03
2024-05-09T12:10:53.865Z,57.73
2024-05-09T12:13:21.602Z,57.83
2024-05-09T12:15:49.156Z,57.64
2024-05-09T12:18:16.667Z,57.51
2024-05-09T12:20:44.098Z,57.13
2024-05-09T12:23:11.555Z,57.55
2024-05-09T12:25:40.307Z,57.68
2024-05-09T12:28:09.067Z,58.37
2024-05-09T12:30:40.136Z,57.95
2024-05-09T12:33:11.589Z,58.48
2024-05-09T12:35:40.114Z,57.92
2024-05-09T12:38:07.768Z,57.77
2024-05-09T12:40:38.053Z,57.93
2024-05-09T12:43:10.660Z,57.48
2024-05-09T12:45:40.773Z,57.38
2024-05-09T12:48:12.284Z,56.84
2024-05-09T12:50:41.422Z,56.87
2024-05-09T12:53:09.225Z,56.72
2024-05-09T12:55:44.292Z,56.34
2024-05-09T12:58:22.334Z,55.53
2024-05-09T13:00:51.535Z,55.60
2024-05-09T13:03:19.396Z,55.92
2024-05-09T13:05:47.165Z,55.22
2024-05-09T13:08:14.557Z,54.97
2024-05-09T13:10:42.522Z,54.82
2024-05-09T13:13:11.285Z,54.76
2024-05-09T13:15:39.303Z,54.69
2024-05-09T13:18:07.352Z,54.91
2024-05-09T13:20:37.087Z,54.64
2024-05-09T13:23:07.215Z,55.26
2024-05-09T13:25:35.700Z,55.65
2024-05-09T13:28:04.867Z,56.07
2024-05-09T13:30:39.478Z,56.95
2024-05-09T13:33:14.095Z,57.14
2024-05-09T13:35:47.242Z,56.58
2024-05-09T13:38:19.337Z,55.93
2024-05-09T13:40:47.816Z,55.69
2024-05-09T13:43:15.884Z,55.58
2024-05-09T13:45:44.117Z,54.87
2024-05-09T13:48:11.655Z,54.56
2024-05-09T13:50:39.531Z,54.56
2024-05-09T13:53:08.188Z,54.47
2024-05-09T13:55:39.730Z,54.82
2024-05-09T13:58:08.780Z,54.53
2024-05-09T14:00:45.036Z,54.08
2024-05-09T14:03:18.427Z,54.29
2024-05-09T14:05:47.416Z,54.33
2024-05-09T14:08:15.888Z,54.05
2024-05-09T14:10:46.722Z,53.79
2024-05-09T14:13:14.889Z,53.24
2024-05-09T14:15:42.536Z,53.53
2024-05-09T14:18:13.236Z,52.83
2024-05-09T14:20:42.170Z,52.15
2024-05-09T14:23:09.957Z,52.45
2024-05-09T14:25:42.037Z,52.36
2024-05-09T14:28:11.912Z,52.39
2024-05-09T14:30:40.100Z,51.89
2024-05-09T14:33:09.001Z,52.02
2024-05-09T14:35:38.823Z,51.40
2024-05-09T14:38:07.919Z,51.38
2024-05-09T14:40:42.241Z,50.92
2024-05-09T14:43:15.922Z,50.88
2024-05-09T14:45:47.337Z,51.09
2024-05-09T14:48:15.991Z,51.23
2024-05-09T14:50:43.867Z,51.32
2024-05-09T14:53:12.781Z,51.32
2024-05-09T14:55:42.574Z,52.29
2024-05-09T14:58:11.757Z,51.40
2024-05-09T15:00:46.121Z,51.95
2024-05-09T15:03:21.145Z,52.50
2024-05-09T15:05:49.842Z,52.93
2024-05-09T15:08:18.653Z,53.59
2024-05-09T15:10:47.307Z,53.14
2024-05-09T15:13:16.766Z,53.67
2024-05-09T15:15:44.931Z,53.83
2024-05-09T15:18:13.264Z,54.58
2024-05-09T15:20:41.439Z,54.65
2024-05-09T15:23:08.898Z,54.46
2024-05-09T15:25:37.007Z,53.91
2024-05-09T15:28:08.221Z,52.88
2024-05-09T15:30:36.598Z,52.68
2024-05-09T15:33:05.025Z,51.84
2024-05-09T15:35:33.951Z,51.62
2024-05-09T15:38:03.330Z,51.22
2024-05-09T15:40:38.031Z,50.78
2024-05-09T15:43:10.586Z,50.15
2024-05-09T15:45:39.859Z,49.23
2024-05-09T15:48:10.234Z,49.22
2024-05-09T15:50:41.018Z,48.82
2024-05-09T15:53:11.974Z,49.37
2024-05-09T15:55:40.563Z,49.63
2024-05-09T15:58:08.355Z,49.81
2024-05-09T16:00:39.829Z,49.54
2024-05-09T16:03:14.542Z,49.91
2024-05-09T16:05:46.773Z,49.61
2024-05-09T16:08:15.612Z,49.59
2024-05-09T16:10:46.112Z,50.88
2024-05-09T16:13:15.240Z,50.56
2024-05-09T16:15:44.470Z,50.62
2024-05-09T16:18:12.485Z,51.03
2024-05-09T16:20:42.559Z,51.17
2024-05-09T16:23:11.757Z,51.45
2024-05-09T16:25:40.135Z,51.80
2024-05-09T16:28:10.419Z,52.26
2024-05-09T16:30:41.815Z,52.46
2024-05-09T16:33:11.078Z,52.28
2024-05-09T16:35:39.733Z,52.35
2024-05-09T16:38:07.461Z,52.35
2024-05-09T16:40:39.105Z,52.58
2024-05-09T16:43:13.367Z,53.86
2024-05-09T16:45:45.423Z,54.22
2024-05-09T16:48:14.542Z,54.77
2024-05-09T16:50:42.283Z,55.23
2024-05-09T16:53:09.721Z,55.14
2024-05-09T16:55:37.303Z,55.55
2024-05-09T16:58:06.763Z,55.93
2024-05-09T17:00:40.861Z,55.45
2024-05-09T17:03:13.873Z,55.41
2024-05-09T17:05:42.966Z,55.09
2024-05-09T17:08:10.618Z,55.64
2024-05-09T17:10:38.252Z,55.92
2024-05-09T17:13:07.728Z,56.54
2024-05-09T17:15:37.314Z,56.61
2024-05-09T17:18:06.088Z,57.31
2024-05-09T17:20:36.315Z,57.43
2024-05-09T17:23:12.811Z,57.81
2024-05-09T17:25:41.468Z,58.13
2024-05-09T17:28:09.599Z,58.08
2024-05-09T17:30:39.418Z,58.13
2024-05-09T17:33:10.217Z,57.48
2024-05-09T17:35:38.874Z,57.83
2024-05-09T17:38:07.107Z,58.29
2024-05-09T17:40:37.252Z,57.66
2024-05-09T17:43:08.469Z,57.42
2024-05-09T17:45:39.069Z,57.60
2024-05-09T17:48:07.843Z,57.40
2024-05-09T17:50:38.083Z,57.60
2024-05-09T17:53:07.156Z,58.28
2024-05-09T17:55:35.557Z,58.26
2024-05-09T17:58:04.894Z,58.97
2024-05-09T18:00:39.052Z,58.82
2024-05-09T18:03:11.934Z,58.67
2024-05-09T18:05:41.110Z,58.98
2024-05-09T18:08:09.219Z,59.79
2024-05-09T18:10:39.337Z,59.70
2024-05-09T18:13:12.233Z,59.34
2024-05-09T18:15:40.539Z,59.76
2024-05-09T18:18:09.311Z,60.18
2024-05-09T18:20:43.003Z,60.15
2024-05-09T18:23:15.773Z,61.50
2024-05-09T18:25:44.612Z,61.04
2024-05-09T18:28:12.055Z,61.10
2024-05-09T18:30:40.387Z,60.84
2024-05-09T18:33:10.900Z,60.67
2024-05-09T18:35:38.857Z,60.55
2024-05-09T18:38:06.326Z,61.37
2024-05-09T18:40:36.706Z,61.60
2024-05-09T18:43:08.126Z,62.36
2024-05-09T18:45:38.395Z,62.62
2024-05-09T18:48:07.823Z,62.66
2024-05-09T18:50:39.686Z,62.86
2024-05-09T18:53:13.210Z,63.11
2024-05-09T18:55:44.666Z,63.14
2024-05-09T18:58:12.253Z,63.16
2024-05-09T19:00:42.609Z,63.54
2024-05-09T19:03:14.123Z,63.71
2024-05-09T19:05:45.237Z,63.40
2024-05-09T19:08:14.674Z,63.92
2024-05-09T19:10:42.386Z,63.94
2024-05-09T19:13:12.730Z,64.36
2024-05-09T19:15:42.539Z,64.71
2024-05-09T19:18:12.460Z,64.71
2024-05-09T19:20:40.415Z,64.53
2024-05-09T19:23:08.016Z,64.95
2024-05-09T19:25:36.927Z,65.44
2024-05-09T19:28:05.655Z,65.27
2024-05-09T19:30:39.128Z,65.28
2024-05-09T19:33:10.454Z,65.14
2024-05-09T19:35:39.134Z,65.34
2024-05-09T19:38:06.818Z,65.65
2024-05-09T19:40:35.329Z,66.19
2024-05-09T19:43:05.011Z,65.79
2024-05-09T19:45:34.942Z,66.05
2024-05-09T19:48:03.759Z,66.64
2024-05-09T19:50:39.705Z,66.84
2024-05-09T19:53:13.245Z,66.95
2024-05-09T19:55:41.414Z,66.65
2024-05-09T19:58:10.709Z,67.07
2024-05-09T20:00:41.662Z,67.18
2024-05-09T20:03:12.309Z,67.03
2024-05-09T20:05:40.254Z,68.13
2024-05-09T20:08:08.096Z,67.99
2024-05-09T20:10:36.580Z,67.83
2024-05-09T20:13:06.770Z,68.33
2024-05-09T20:15:36.878Z,68.53
2024-05-09T20:18:05.536Z,68.35
2024-05-09T20:20:39.359Z,68.71
2024-05-09T20:23:11.037Z,68.72
2024-05-09T20:25:41.930Z,68.67
2024-05-09T20:28:10.016Z,68.99
2024-05-09T20:30:37.944Z,69.61
2024-05-09T20:33:07.824Z,69.94
2024-05-09T20:35:36.561Z,69.93
2024-05-09T20:38:04.552Z,70.40
2024-05-09T20:40:36.487Z,70.98
2024-05-09T20:43:07.505Z,70.63
2024-05-09T20:45:36.860Z,71.25
2024-05-09T20:48:04.959Z,71.45
2024-05-09T20:50:38.809Z,71.35
2024-05-09T20:53:10.024Z,71.27
2024-05-09T20:55:37.766Z,71.51
2024-05-09T20:58:05.452Z,71.54
2024-05-09T21:00:40.339Z,71.32
2024-05-09T21:03:12.214Z,72.25
2024-05-09T21:05:40.684Z,71.67
2024-05-09T21:08:09.046Z,71.97
2024-05-09T21:10:37.436Z,71.79
2024-05-09T21:13:06.430Z,72.48
2024-05-09T21:15:35.121Z,72.58
2024-05-09T21:18:03.114Z,72.64
2024-05-09T21:20:33.313Z,73.04
2024-05-09T21:23:02.383Z,72.99
2024-05-09T21:25:30.152Z,73.07
2024-05-09T21:27:57.904Z,72.78
2024-05-09T21:30:38.186Z,73.44
2024-05-09T21:33:11.079Z,73.75
2024-05-09T21:35:40.419Z,73.62
2024-05-09T21:38:08.249Z,73.83
2024-05-09T21:40:36.980Z,73.90
2024-05-09T21:43:06.083Z,73.86
2024-05-09T21:45:34.508Z,73.91
2024-05-09T21:48:04.732Z,74.10
2024-05-09T21:50:39.249Z,74.38
2024-05-09T21:53:09.048Z,74.14
2024-05-09T21:55:36.384Z,73.96
2024-05-09T21:58:05.111Z,74.51
2024-05-09T22:00:37.642Z,74.42
2024-05-09T22:03:11.318Z,74.20
2024-05-09T22:05:42.242Z,74.21
2024-05-09T22:08:10.931Z,74.75
2024-05-09T22:10:38.585Z,74.77
2024-05-09T22:13:06.928Z,74.57
2024-05-09T22:15:40.280Z,74.97
2024-05-09T22:18:09.868Z,74.96
2024-05-09T22:20:44.820Z,74.88
2024-05-09T22:23:14.327Z,75.44
2024-05-09T22:25:42.472Z,75.22
2024-05-09T22:28:10.079Z,75.51
2024-05-09T22:30:39.813Z,75.57
2024-05-09T22:33:11.958Z,75.72
2024-05-09T22:35:41.226Z,75.73
2024-05-09T22:38:09.076Z,75.81
2024-05-09T22:40:45.976Z,75.61
2024-05-09T22:43:22.211Z,75.92
2024-05-09T22:45:52.045Z,75.64
2024-05-09T22:48:19.801Z,75.73
2024-05-09T22:50:47.467Z,76.16
2024-05-09T22:53:14.995Z,76.36
2024-05-09T22:55:42.780Z,76.09
2024-05-09T22:58:11.130Z,76.46
2024-05-09T23:00:38.869Z,76.03
2024-05-09T23:03:06.547Z,75.99
2024-05-09T23:05:34.175Z,76.45
2024-05-09T23:08:02.836Z,76.38
2024-05-09T23:10:35.956Z,76.63
2024-05-09T23:13:06.996Z,76.39
2024-05-09T23:15:35.023Z,76.94
2024-05-09T23:18:02.573Z,77.10
2024-05-09T23:20:36.886Z,77.15
2024-05-09T23:23:11.450Z,77.66
2024-05-09T23:25:41.823Z,77.48
2024-05-09T23:28:10.352Z,77.67
2024-05-09T23:30:40.326Z,77.60
2024-05-09T23:33:12.198Z,77.82
2024-05-09T23:35:42.124Z,78.00
2024-05-09T23:38:09.538Z,77.36
2024-05-09T23:40:39.982Z,77.64
2024-05-09T23:43:10.537Z,77.71
2024-05-09T23:45:38.742Z,77.32
2024-05-09T23:48:06.894Z,77.94
2024-05-09T23:50:37.630Z,77.99
2024-05-09T23:53:08.589Z,78.08
2024-05-09T23:55:37.411Z,78.17
2024-05-09T23:58:05.278Z,78.60
